Terminal Aerodrome Forecast
Issued by NWS

Home | Current Version | Previous Version | Text Only | Print | Product List | Glossary On
Versions: 1 2 3 4 5 6 7 8 9 10 11 12 13
000
FTUS44 KOUN 182335
TAFPNC
TAF
KPNC 182335Z 1900/1924 16006KT P6SM BKN050
     FM190500 14005KT P6SM OVC020
     FM190700 15006KT 3SM BR OVC008
      TEMPO 1908/1912 3/4SM -DZ BR OVC003
     FM191200 14006KT 2SM BR OVC006
      TEMPO 1912/1916 3/4SM -DZ BR OVC003
     FM191700 15008KT 6SM BR OVC015=

USA.gov is the U.S. government's official web portal to all federal, state and local government web resources and services.